Terminal Aerodrome Forecast
Issued by NWS

Current Version | Previous Version | Text Only | Print | Product List | Glossary Off
Versions: 1 2 3 4 5 6 7 8 9 10 11 12 13 14 15 16 17 18 19

000
FTUS41 KPBZ 280708 AAA
TAFMGW
TAF AMD
KMGW 280708Z 2807/2906 21006KT P6SM OVC018
     FM281200 23006KT P6SM -SHRA OVC015
     FM282100 26010KT P6SM OVC025
     FM290000 25003KT P6SM BKN035=

USA.gov is the U.S. government's official web portal to all federal, state and local government web resources and services.